sensor_id;sensor_type;location;lat;lon;timestamp;pressure;altitude;pressure_sealevel;temperature;humidity
57114;BME280;42994;51.606;9.988;2024-01-06T00:00:30;97792.88;;;5.36;100.00
57114;BME280;42994;51.606;9.988;2024-01-06T00:02:56;97791.00;;;5.30;100.00
57114;BME280;42994;51.606;9.988;2024-01-06T00:05:23;97799.47;;;5.40;100.00
57114;BME280;42994;51.606;9.988;2024-01-06T00:07:50;97802.06;;;5.33;100.00
57114;BME280;42994;51.606;9.988;2024-01-06T00:10:17;97800.22;;;5.34;100.00
57114;BME280;42994;51.606;9.988;2024-01-06T00:12:45;97811.03;;;5.32;100.00
57114;BME280;42994;51.606;9.988;2024-01-06T00:15:12;97806.34;;;5.34;100.00
57114;BME280;42994;51.606;9.988;2024-01-06T00:17:39;97803.34;;;5.37;100.00
57114;BME280;42994;51.606;9.988;2024-01-06T00:20:07;97802.88;;;5.34;100.00
57114;BME280;42994;51.606;9.988;2024-01-06T00:22:33;97816.63;;;5.37;100.00
57114;BME280;42994;51.606;9.988;2024-01-06T00:25:00;97817.16;;;5.33;100.00
57114;BME280;42994;51.606;9.988;2024-01-06T00:27:27;97817.16;;;5.33;100.00
57114;BME280;42994;51.606;9.988;2024-01-06T00:29:55;97811.78;;;5.26;100.00
57114;BME280;42994;51.606;9.988;2024-01-06T00:32:22;97811.13;;;5.39;100.00
57114;BME280;42994;51.606;9.988;2024-01-06T00:34:48;97817.94;;;5.27;100.00
57114;BME280;42994;51.606;9.988;2024-01-06T00:37:15;97816.66;;;5.23;100.00
57114;BME280;42994;51.606;9.988;2024-01-06T00:39:41;97810.84;;;5.34;100.00
57114;BME280;42994;51.606;9.988;2024-01-06T00:42:08;97815.53;;;5.32;100.00
57114;BME280;42994;51.606;9.988;2024-01-06T00:44:36;97824.63;;;5.23;100.00
57114;BME280;42994;51.606;9.988;2024-01-06T00:47:04;97823.25;;;5.27;100.00
57114;BME280;42994;51.606;9.988;2024-01-06T00:49:30;97831.56;;;5.24;100.00
57114;BME280;42994;51.606;9.988;2024-01-06T00:51:57;97832.34;;;5.17;100.00
57114;BME280;42994;51.606;9.988;2024-01-06T00:54:24;97824.28;;;5.26;100.00
57114;BME280;42994;51.606;9.988;2024-01-06T00:56:50;97825.34;;;5.16;100.00
57114;BME280;42994;51.606;9.988;2024-01-06T00:59:17;97821.22;;;5.29;100.00
57114;BME280;42994;51.606;9.988;2024-01-06T01:01:43;97821.22;;;5.29;100.00
57114;BME280;42994;51.606;9.988;2024-01-06T01:04:11;97831.97;;;5.20;100.00
57114;BME280;42994;51.606;9.988;2024-01-06T01:06:38;97835.00;;;5.17;100.00
57114;BME280;42994;51.606;9.988;2024-01-06T01:09:04;97837.66;;;5.17;100.00
57114;BME280;42994;51.606;9.988;2024-01-06T01:11:31;97825.00;;;5.19;100.00
57114;BME280;42994;51.606;9.988;2024-01-06T01:13:57;97839.41;;;5.10;100.00
57114;BME280;42994;51.606;9.988;2024-01-06T01:16:24;97844.72;;;5.10;100.00
57114;BME280;42994;51.606;9.988;2024-01-06T01:18:51;97844.25;;;5.07;100.00
57114;BME280;42994;51.606;9.988;2024-01-06T01:21:17;97840.59;;;5.08;100.00
57114;BME280;42994;51.606;9.988;2024-01-06T01:23:44;97842.81;;;5.04;100.00
57114;BME280;42994;51.606;9.988;2024-01-06T01:26:11;97849.09;;;5.03;100.00
57114;BME280;42994;51.606;9.988;2024-01-06T01:28:37;97850.78;;;5.04;100.00
57114;BME280;42994;51.606;9.988;2024-01-06T01:31:04;97860.84;;;4.94;100.00
57114;BME280;42994;51.606;9.988;2024-01-06T01:33:30;97859.38;;;4.91;100.00
57114;BME280;42994;51.606;9.988;2024-01-06T01:35:57;97859.28;;;4.85;100.00
57114;BME280;42994;51.606;9.988;2024-01-06T01:38:25;97869.16;;;4.91;100.00
57114;BME280;42994;51.606;9.988;2024-01-06T01:40:52;97871.75;;;4.84;100.00
57114;BME280;42994;51.606;9.988;2024-01-06T01:43:18;97866.63;;;4.68;100.00
57114;BME280;42994;51.606;9.988;2024-01-06T01:45:48;97885.56;;;4.79;100.00
57114;BME280;42994;51.606;9.988;2024-01-06T01:48:16;97879.72;;;4.69;100.00
57114;BME280;42994;51.606;9.988;2024-01-06T01:50:43;97882.31;;;4.54;100.00
57114;BME280;42994;51.606;9.988;2024-01-06T01:53:10;97874.09;;;4.49;100.00
57114;BME280;42994;51.606;9.988;2024-01-06T01:55:41;97883.16;;;4.40;100.00
57114;BME280;42994;51.606;9.988;2024-01-06T01:58:09;97889.28;;;4.40;100.00
57114;BME280;42994;51.606;9.988;2024-01-06T02:00:36;97894.81;;;4.31;100.00
57114;BME280;42994;51.606;9.988;2024-01-06T02:03:04;97896.13;;;4.35;100.00
57114;BME280;42994;51.606;9.988;2024-01-06T02:05:31;97901.16;;;4.45;100.00
57114;BME280;42994;51.606;9.988;2024-01-06T02:07:58;97897.13;;;4.49;100.00
57114;BME280;42994;51.606;9.988;2024-01-06T02:10:25;97905.03;;;4.57;100.00
57114;BME280;42994;51.606;9.988;2024-01-06T02:12:53;97900.44;;;4.51;100.00
57114;BME280;42994;51.606;9.988;2024-01-06T02:15:20;97903.75;;;4.53;100.00
57114;BME280;42994;51.606;9.988;2024-01-06T02:17:46;97893.25;;;3.98;100.00
57114;BME280;42994;51.606;9.988;2024-01-06T02:20:14;97897.84;;;4.04;100.00
57114;BME280;42994;51.606;9.988;2024-01-06T02:22:46;97895.19;;;4.04;100.00
57114;BME280;42994;51.606;9.988;2024-01-06T02:25:12;97892.88;;;4.01;100.00
57114;BME280;42994;51.606;9.988;2024-01-06T02:27:39;97890.72;;;4.05;100.00
57114;BME280;42994;51.606;9.988;2024-01-06T02:30:07;97899.44;;;4.14;100.00
57114;BME280;42994;51.606;9.988;2024-01-06T02:32:33;97907.38;;;4.14;100.00
57114;BME280;42994;51.606;9.988;2024-01-06T02:35:00;97909.88;;;4.15;100.00
57114;BME280;42994;51.606;9.988;2024-01-06T02:37:27;97916.53;;;4.11;100.00
57114;BME280;42994;51.606;9.988;2024-01-06T02:39:55;97919.97;;;4.20;100.00
57114;BME280;42994;51.606;9.988;2024-01-06T02:42:21;97911.78;;;4.21;100.00
57114;BME280;42994;51.606;9.988;2024-01-06T02:44:49;97920.44;;;4.23;100.00
57114;BME280;42994;51.606;9.988;2024-01-06T02:47:16;97921.53;;;4.29;100.00
57114;BME280;42994;51.606;9.988;2024-01-06T02:49:42;97925.31;;;4.35;100.00
57114;BME280;42994;51.606;9.988;2024-01-06T02:52:09;97921.16;;;4.32;100.00
57114;BME280;42994;51.606;9.988;2024-01-06T02:54:35;97925.66;;;4.32;100.00
57114;BME280;42994;51.606;9.988;2024-01-06T02:57:04;97933.09;;;4.36;100.00
57114;BME280;42994;51.606;9.988;2024-01-06T02:59:30;97927.41;;;4.39;100.00
57114;BME280;42994;51.606;9.988;2024-01-06T03:01:58;97925.78;;;4.38;100.00
57114;BME280;42994;51.606;9.988;2024-01-06T03:04:24;97930.66;;;4.50;100.00
57114;BME280;42994;51.606;9.988;2024-01-06T03:06:51;97932.84;;;4.46;100.00
57114;BME280;42994;51.606;9.988;2024-01-06T03:09:19;97936.84;;;4.42;100.00
57114;BME280;42994;51.606;9.988;2024-01-06T03:11:45;97938.03;;;4.39;100.00
57114;BME280;42994;51.606;9.988;2024-01-06T03:14:13;97927.06;;;4.42;100.00
57114;BME280;42994;51.606;9.988;2024-01-06T03:16:40;97942.16;;;4.42;100.00
57114;BME280;42994;51.606;9.988;2024-01-06T03:19:06;97935.38;;;4.39;100.00
57114;BME280;42994;51.606;9.988;2024-01-06T03:21:33;97942.97;;;4.42;100.00
57114;BME280;42994;51.606;9.988;2024-01-06T03:24:00;97945.00;;;4.40;100.00
57114;BME280;42994;51.606;9.988;2024-01-06T03:26:26;97949.81;;;4.37;100.00
57114;BME280;42994;51.606;9.988;2024-01-06T03:28:54;97939.97;;;4.46;100.00
57114;BME280;42994;51.606;9.988;2024-01-06T03:31:22;97950.59;;;4.46;100.00
57114;BME280;42994;51.606;9.988;2024-01-06T03:33:49;97948.94;;;4.45;100.00
57114;BME280;42994;51.606;9.988;2024-01-06T03:36:16;97963.84;;;4.46;100.00
57114;BME280;42994;51.606;9.988;2024-01-06T03:38:43;97958.81;;;4.51;100.00
57114;BME280;42994;51.606;9.988;2024-01-06T03:41:10;97962.50;;;4.50;100.00
57114;BME280;42994;51.606;9.988;2024-01-06T03:43:36;97969.09;;;4.54;100.00
57114;BME280;42994;51.606;9.988;2024-01-06T03:46:04;97967.44;;;4.53;100.00
57114;BME280;42994;51.606;9.988;2024-01-06T03:48:33;97973.88;;;4.58;100.00
57114;BME280;42994;51.606;9.988;2024-01-06T03:51:00;97977.84;;;4.54;100.00
57114;BME280;42994;51.606;9.988;2024-01-06T03:53:27;97984.00;;;4.55;100.00
57114;BME280;42994;51.606;9.988;2024-01-06T03:55:53;97989.63;;;4.60;100.00
57114;BME280;42994;51.606;9.988;2024-01-06T03:58:20;97995.75;;;4.60;100.00
57114;BME280;42994;51.606;9.988;2024-01-06T04:00:47;97999.03;;;4.62;100.00
57114;BME280;42994;51.606;9.988;2024-01-06T04:03:13;97996.91;;;4.58;100.00
57114;BME280;42994;51.606;9.988;2024-01-06T04:05:41;98004.19;;;4.64;100.00
57114;BME280;42994;51.606;9.988;2024-01-06T04:08:08;97996.25;;;4.56;100.00
57114;BME280;42994;51.606;9.988;2024-01-06T04:10:34;98002.50;;;4.63;100.00
57114;BME280;42994;51.606;9.988;2024-01-06T04:13:01;98007.34;;;4.59;100.00
57114;BME280;42994;51.606;9.988;2024-01-06T04:15:28;98010.47;;;4.63;100.00
57114;BME280;42994;51.606;9.988;2024-01-06T04:17:54;98015.97;;;4.61;100.00
57114;BME280;42994;51.606;9.988;2024-01-06T04:20:21;98011.53;;;4.54;100.00
57114;BME280;42994;51.606;9.988;2024-01-06T04:22:49;98006.53;;;4.59;100.00
57114;BME280;42994;51.606;9.988;2024-01-06T04:25:15;98010.56;;;4.55;100.00
57114;BME280;42994;51.606;9.988;2024-01-06T04:27:42;98006.19;;;4.62;100.00
57114;BME280;42994;51.606;9.988;2024-01-06T04:30:11;98008.72;;;4.55;100.00
57114;BME280;42994;51.606;9.988;2024-01-06T04:32:38;98017.88;;;4.53;100.00
57114;BME280;42994;51.606;9.988;2024-01-06T04:35:05;98016.50;;;4.57;100.00
57114;BME280;42994;51.606;9.988;2024-01-06T04:37:32;98016.69;;;4.55;100.00
57114;BME280;42994;51.606;9.988;2024-01-06T04:40:00;98019.81;;;4.59;100.00
57114;BME280;42994;51.606;9.988;2024-01-06T04:42:27;98016.50;;;4.57;100.00
57114;BME280;42994;51.606;9.988;2024-01-06T04:44:53;98024.47;;;4.57;100.00
57114;BME280;42994;51.606;9.988;2024-01-06T04:47:20;98027.22;;;4.63;100.00
57114;BME280;42994;51.606;9.988;2024-01-06T04:49:47;98026.56;;;4.61;100.00
57114;BME280;42994;51.606;9.988;2024-01-06T04:52:13;98025.75;;;4.61;100.00
57114;BME280;42994;51.606;9.988;2024-01-06T04:54:40;98029.47;;;4.52;100.00
57114;BME280;42994;51.606;9.988;2024-01-06T04:57:08;98031.88;;;4.61;100.00
57114;BME280;42994;51.606;9.988;2024-01-06T04:59:34;98034.75;;;4.60;100.00
57114;BME280;42994;51.606;9.988;2024-01-06T05:02:01;98038.50;;;4.42;100.00
57114;BME280;42994;51.606;9.988;2024-01-06T05:04:28;98043.56;;;4.52;100.00
57114;BME280;42994;51.606;9.988;2024-01-06T05:06:56;98047.09;;;4.45;100.00
57114;BME280;42994;51.606;9.988;2024-01-06T05:09:22;98065.06;;;4.34;100.00
57114;BME280;42994;51.606;9.988;2024-01-06T05:11:49;98066.78;;;4.27;100.00
57114;BME280;42994;51.606;9.988;2024-01-06T05:14:17;98078.06;;;4.29;100.00
57114;BME280;42994;51.606;9.988;2024-01-06T05:16:44;98089.03;;;4.18;100.00
57114;BME280;42994;51.606;9.988;2024-01-06T05:19:10;98099.66;;;4.18;100.00
57114;BME280;42994;51.606;9.988;2024-01-06T05:21:37;98104.00;;;4.11;100.00
57114;BME280;42994;51.606;9.988;2024-01-06T05:24:04;98104.13;;;4.17;100.00
57114;BME280;42994;51.606;9.988;2024-01-06T05:26:31;98116.88;;;4.22;100.00
57114;BME280;42994;51.606;9.988;2024-01-06T05:28:57;98108.75;;;4.23;100.00
57114;BME280;42994;51.606;9.988;2024-01-06T05:31:25;98120.31;;;4.31;100.00
57114;BME280;42994;51.606;9.988;2024-01-06T05:33:52;98122.78;;;4.32;100.00
57114;BME280;42994;51.606;9.988;2024-01-06T05:36:19;98122.53;;;4.19;100.00
57114;BME280;42994;51.606;9.988;2024-01-06T05:38:45;98117.56;;;4.16;100.00
57114;BME280;42994;51.606;9.988;2024-01-06T05:41:12;98135.63;;;4.20;100.00
57114;BME280;42994;51.606;9.988;2024-01-06T05:43:38;98131.13;;;4.21;100.00
57114;BME280;42994;51.606;9.988;2024-01-06T05:46:05;98126.47;;;4.23;100.00
57114;BME280;42994;51.606;9.988;2024-01-06T05:48:33;98132.44;;;4.25;100.00
57114;BME280;42994;51.606;9.988;2024-01-06T05:51:00;98135.78;;;4.19;100.00
57114;BME280;42994;51.606;9.988;2024-01-06T05:53:27;98140.94;;;4.20;100.00
57114;BME280;42994;51.606;9.988;2024-01-06T05:55:53;98130.31;;;4.20;100.00
57114;BME280;42994;51.606;9.988;2024-01-06T05:58:20;98127.50;;;4.22;100.00
57114;BME280;42994;51.606;9.988;2024-01-06T06:00:47;98139.25;;;4.28;100.00
57114;BME280;42994;51.606;9.988;2024-01-06T06:03:14;98139.41;;;4.26;100.00
57114;BME280;42994;51.606;9.988;2024-01-06T06:05:42;98138.06;;;4.30;100.00
57114;BME280;42994;51.606;9.988;2024-01-06T06:08:08;98151.31;;;4.30;100.00
57114;BME280;42994;51.606;9.988;2024-01-06T06:10:35;98147.31;;;4.34;100.00
57114;BME280;42994;51.606;9.988;2024-01-06T06:13:17;98156.16;;;4.27;100.00
57114;BME280;42994;51.606;9.988;2024-01-06T06:15:44;98157.66;;;4.29;100.00
57114;BME280;42994;51.606;9.988;2024-01-06T06:18:10;98156.63;;;4.30;100.00
57114;BME280;42994;51.606;9.988;2024-01-06T06:20:37;98149.47;;;4.39;100.00
57114;BME280;42994;51.606;9.988;2024-01-06T06:23:05;98151.25;;;4.47;100.00
57114;BME280;42994;51.606;9.988;2024-01-06T06:25:31;98154.06;;;4.45;100.00
57114;BME280;42994;51.606;9.988;2024-01-06T06:27:58;98155.19;;;4.51;100.00
57114;BME280;42994;51.606;9.988;2024-01-06T06:30:25;98164.69;;;4.45;100.00
57114;BME280;42994;51.606;9.988;2024-01-06T06:32:52;98166.19;;;4.39;100.00
57114;BME280;42994;51.606;9.988;2024-01-06T06:35:18;98171.03;;;4.36;100.00
57114;BME280;42994;51.606;9.988;2024-01-06T06:37:45;98164.19;;;4.41;100.00
57114;BME280;42994;51.606;9.988;2024-01-06T06:40:13;98170.84;;;4.46;100.00
57114;BME280;42994;51.606;9.988;2024-01-06T06:42:40;98174.16;;;4.39;100.00
57114;BME280;42994;51.606;9.988;2024-01-06T06:45:08;98171.59;;;4.54;100.00
57114;BME280;42994;51.606;9.988;2024-01-06T06:47:37;98180.25;;;4.48;100.00
57114;BME280;42994;51.606;9.988;2024-01-06T06:50:04;98188.53;;;4.53;100.00
57114;BME280;42994;51.606;9.988;2024-01-06T06:52:31;98180.41;;;4.55;100.00
57114;BME280;42994;51.606;9.988;2024-01-06T06:54:57;98192.31;;;4.59;100.00
57114;BME280;42994;51.606;9.988;2024-01-06T06:57:25;98187.34;;;4.56;100.00
57114;BME280;42994;51.606;9.988;2024-01-06T06:59:52;98194.00;;;4.60;100.00
57114;BME280;42994;51.606;9.988;2024-01-06T07:02:19;98195.97;;;4.58;100.00
57114;BME280;42994;51.606;9.988;2024-01-06T07:04:45;98200.47;;;4.57;100.00
57114;BME280;42994;51.606;9.988;2024-01-06T07:07:12;98215.88;;;4.62;100.00
57114;BME280;42994;51.606;9.988;2024-01-06T07:09:40;98210.56;;;4.62;100.00
57114;BME280;42994;51.606;9.988;2024-01-06T07:12:07;98218.88;;;4.59;100.00
57114;BME280;42994;51.606;9.988;2024-01-06T07:14:35;98222.50;;;4.58;100.00
57114;BME280;42994;51.606;9.988;2024-01-06T07:17:02;98231.38;;;4.42;100.00
57114;BME280;42994;51.606;9.988;2024-01-06T07:19:29;98241.47;;;4.47;100.00
57114;BME280;42994;51.606;9.988;2024-01-06T07:21:55;98243.97;;;4.48;100.00
57114;BME280;42994;51.606;9.988;2024-01-06T07:24:22;98241.13;;;4.50;100.00
57114;BME280;42994;51.606;9.988;2024-01-06T07:26:49;98240.47;;;4.48;100.00
57114;BME280;42994;51.606;9.988;2024-01-06T07:29:15;98254.06;;;4.53;100.00
57114;BME280;42994;51.606;9.988;2024-01-06T07:31:44;98264.38;;;4.48;100.00
57114;BME280;42994;51.606;9.988;2024-01-06T07:34:11;98269.50;;;4.49;100.00
57114;BME280;42994;51.606;9.988;2024-01-06T07:36:37;98271.72;;;4.29;100.00
57114;BME280;42994;51.606;9.988;2024-01-06T07:39:05;98283.69;;;4.00;100.00
57114;BME280;42994;51.606;9.988;2024-01-06T07:41:31;98299.25;;;4.28;100.00
57114;BME280;42994;51.606;9.988;2024-01-06T07:43:58;98305.06;;;4.23;100.00
57114;BME280;42994;51.606;9.988;2024-01-06T07:46:26;98317.63;;;4.38;100.00
57114;BME280;42994;51.606;9.988;2024-01-06T07:48:54;98315.16;;;4.36;100.00
57114;BME280;42994;51.606;9.988;2024-01-06T07:51:21;98318.09;;;4.41;100.00
57114;BME280;42994;51.606;9.988;2024-01-06T07:53:47;98314.13;;;4.46;100.00
57114;BME280;42994;51.606;9.988;2024-01-06T07:56:14;98317.81;;;4.28;100.00
57114;BME280;42994;51.606;9.988;2024-01-06T07:58:41;98330.06;;;4.37;100.00
57114;BME280;42994;51.606;9.988;2024-01-06T08:01:08;98332.88;;;4.44;100.00
57114;BME280;42994;51.606;9.988;2024-01-06T08:03:35;98336.03;;;4.48;100.00
57114;BME280;42994;51.606;9.988;2024-01-06T08:06:03;98337.16;;;4.53;100.00
57114;BME280;42994;51.606;9.988;2024-01-06T08:08:30;98332.69;;;4.54;100.00
57114;BME280;42994;51.606;9.988;2024-01-06T08:10:56;98334.34;;;4.55;100.00
57114;BME280;42994;51.606;9.988;2024-01-06T08:13:23;98335.97;;;4.56;100.00
57114;BME280;42994;51.606;9.988;2024-01-06T08:15:50;98337.66;;;4.57;100.00
57114;BME280;42994;51.606;9.988;2024-01-06T08:18:16;98338.81;;;4.54;100.00
57114;BME280;42994;51.606;9.988;2024-01-06T08:20:43;98339.28;;;4.58;100.00
57114;BME280;42994;51.606;9.988;2024-01-06T08:23:11;98348.59;;;4.62;100.00
57114;BME280;42994;51.606;9.988;2024-01-06T08:25:38;98353.41;;;4.58;100.00
57114;BME280;42994;51.606;9.988;2024-01-06T08:28:05;98350.41;;;4.61;100.00
57114;BME280;42994;51.606;9.988;2024-01-06T08:30:31;98361.38;;;4.58;100.00
57114;BME280;42994;51.606;9.988;2024-01-06T08:32:58;98359.72;;;4.57;100.00
57114;BME280;42994;51.606;9.988;2024-01-06T08:35:25;98355.06;;;4.59;100.00
57114;BME280;42994;51.606;9.988;2024-01-06T08:37:52;98373.47;;;4.61;100.00
57114;BME280;42994;51.606;9.988;2024-01-06T08:40:20;98369.63;;;4.63;100.00
57114;BME280;42994;51.606;9.988;2024-01-06T08:42:47;98373.31;;;4.62;100.00
57114;BME280;42994;51.606;9.988;2024-01-06T08:45:14;98368.00;;;4.62;100.00
57114;BME280;42994;51.606;9.988;2024-01-06T08:47:41;98370.50;;;4.64;100.00
57114;BME280;42994;51.606;9.988;2024-01-06T08:50:07;98381.94;;;4.65;100.00
57114;BME280;42994;51.606;9.988;2024-01-06T08:52:34;98376.78;;;4.63;100.00
57114;BME280;42994;51.606;9.988;2024-01-06T08:55:01;98387.75;;;4.60;100.00
57114;BME280;42994;51.606;9.988;2024-01-06T08:57:29;98385.09;;;4.60;100.00
57114;BME280;42994;51.606;9.988;2024-01-06T08:59:55;98392.75;;;4.55;100.00
57114;BME280;42994;51.606;9.988;2024-01-06T09:02:22;98407.16;;;4.60;100.00
57114;BME280;42994;51.606;9.988;2024-01-06T09:04:48;98403.16;;;4.65;100.00
57114;BME280;42994;51.606;9.988;2024-01-06T09:07:15;98410.63;;;4.69;100.00
57114;BME280;42994;51.606;9.988;2024-01-06T09:09:42;98402.00;;;4.67;100.00
57114;BME280;42994;51.606;9.988;2024-01-06T09:12:09;98408.63;;;4.71;100.00
57114;BME280;42994;51.606;9.988;2024-01-06T09:14:37;98407.78;;;4.71;100.00
57114;BME280;42994;51.606;9.988;2024-01-06T09:17:04;98414.75;;;4.72;100.00
57114;BME280;42994;51.606;9.988;2024-01-06T09:19:31;98409.94;;;4.75;100.00
57114;BME280;42994;51.606;9.988;2024-01-06T09:21:57;98404.31;;;4.78;100.00
57114;BME280;42994;51.606;9.988;2024-01-06T09:24:24;98413.25;;;4.77;100.00
57114;BME280;42994;51.606;9.988;2024-01-06T09:26:50;98414.94;;;4.78;100.00
57114;BME280;42994;51.606;9.988;2024-01-06T09:29:17;98426.88;;;4.74;100.00
57114;BME280;42994;51.606;9.988;2024-01-06T09:31:45;98427.88;;;4.65;100.00
57114;BME280;42994;51.606;9.988;2024-01-06T09:34:12;98441.84;;;4.59;100.00
57114;BME280;42994;51.606;9.988;2024-01-06T09:36:38;98449.78;;;4.67;100.00
57114;BME280;42994;51.606;9.988;2024-01-06T09:39:05;98455.94;;;4.68;100.00
57114;BME280;42994;51.606;9.988;2024-01-06T09:41:33;98454.91;;;4.77;100.00
57114;BME280;42994;51.606;9.988;2024-01-06T09:44:00;98456.41;;;4.63;100.00
57114;BME280;42994;51.606;9.988;2024-01-06T09:46:28;98461.56;;;4.48;100.00
57114;BME280;42994;51.606;9.988;2024-01-06T09:48:57;98476.31;;;4.51;100.00
57114;BME280;42994;51.606;9.988;2024-01-06T09:51:25;98477.16;;;4.68;100.00
57114;BME280;42994;51.606;9.988;2024-01-06T09:53:56;98472.34;;;4.71;100.00
57114;BME280;42994;51.606;9.988;2024-01-06T09:56:24;98465.53;;;4.77;100.00
57114;BME280;42994;51.606;9.988;2024-01-06T09:58:51;98472.34;;;4.79;100.00
57114;BME280;42994;51.606;9.988;2024-01-06T10:01:18;98469.19;;;4.76;100.00
57114;BME280;42994;51.606;9.988;2024-01-06T10:03:44;98473.34;;;4.78;100.00
57114;BME280;42994;51.606;9.988;2024-01-06T10:06:13;98473.47;;;4.85;100.00
57114;BME280;42994;51.606;9.988;2024-01-06T10:08:42;98473.84;;;4.82;100.00
57114;BME280;42994;51.606;9.988;2024-01-06T10:11:08;98463.34;;;4.89;100.00
57114;BME280;42994;51.606;9.988;2024-01-06T10:13:36;98477.66;;;4.88;100.00
57114;BME280;42994;51.606;9.988;2024-01-06T10:16:03;98468.34;;;4.92;100.00
57114;BME280;42994;51.606;9.988;2024-01-06T10:18:30;98474.63;;;4.91;100.00
57114;BME280;42994;51.606;9.988;2024-01-06T10:20:57;98466.66;;;4.91;100.00
57114;BME280;42994;51.606;9.988;2024-01-06T10:23:27;98477.97;;;4.93;100.00
57114;BME280;42994;51.606;9.988;2024-01-06T10:25:54;98473.81;;;4.98;100.00
57114;BME280;42994;51.606;9.988;2024-01-06T10:28:22;98478.28;;;4.98;100.00
57114;BME280;42994;51.606;9.988;2024-01-06T10:30:51;98465.34;;;4.95;100.00
57114;BME280;42994;51.606;9.988;2024-01-06T10:33:18;98475.97;;;4.95;100.00
57114;BME280;42994;51.606;9.988;2024-01-06T10:35:45;98480.94;;;5.06;100.00
57114;BME280;42994;51.606;9.988;2024-01-06T10:38:12;98481.91;;;5.05;100.00
57114;BME280;42994;51.606;9.988;2024-01-06T10:40:40;98481.75;;;5.07;100.00
57114;BME280;42994;51.606;9.988;2024-01-06T10:43:07;98471.47;;;5.04;100.00
57114;BME280;42994;51.606;9.988;2024-01-06T10:45:35;98470.31;;;5.06;100.00
57114;BME280;42994;51.606;9.988;2024-01-06T10:48:05;98480.78;;;4.99;100.00
57114;BME280;42994;51.606;9.988;2024-01-06T10:50:32;98484.06;;;5.10;100.00
57114;BME280;42994;51.606;9.988;2024-01-06T10:53:00;98483.56;;;5.14;100.00
57114;BME280;42994;51.606;9.988;2024-01-06T10:55:29;98484.56;;;5.05;100.00
57114;BME280;42994;51.606;9.988;2024-01-06T10:57:59;98486.25;;;5.06;100.00
57114;BME280;42994;51.606;9.988;2024-01-06T11:00:26;98488.91;;;5.06;100.00
57114;BME280;42994;51.606;9.988;2024-01-06T11:02:53;98495.72;;;5.00;100.00
57114;BME280;42994;51.606;9.988;2024-01-06T11:05:21;98485.59;;;5.04;100.00
57114;BME280;42994;51.606;9.988;2024-01-06T11:07:48;98499.19;;;5.01;100.00
57114;BME280;42994;51.606;9.988;2024-01-06T11:10:18;98495.88;;;4.99;100.00
57114;BME280;42994;51.606;9.988;2024-01-06T11:12:45;98495.22;;;4.97;100.00
57114;BME280;42994;51.606;9.988;2024-01-06T11:15:38;98495.06;;;4.98;100.00
57114;BME280;42994;51.606;9.988;2024-01-06T11:18:05;98495.06;;;4.98;100.00
57114;BME280;42994;51.606;9.988;2024-01-06T11:20:32;98502.34;;;4.96;100.00
57114;BME280;42994;51.606;9.988;2024-01-06T11:23:17;98502.19;;;4.98;100.00
57114;BME280;42994;51.606;9.988;2024-01-06T11:25:44;98500.03;;;4.93;100.00
57114;BME280;42994;51.606;9.988;2024-01-06T11:28:11;98505.50;;;5.00;100.00
57114;BME280;42994;51.606;9.988;2024-01-06T11:30:40;98511.81;;;4.99;100.00
57114;BME280;42994;51.606;9.988;2024-01-06T11:33:08;98508.47;;;5.05;100.00
57114;BME280;42994;51.606;9.988;2024-01-06T11:35:37;98504.00;;;4.97;100.00
57114;BME280;42994;51.606;9.988;2024-01-06T11:38:06;98505.31;;;5.01;100.00
57114;BME280;42994;51.606;9.988;2024-01-06T11:40:35;98507.66;;;5.05;100.00
57114;BME280;42994;51.606;9.988;2024-01-06T11:43:04;98513.97;;;5.12;100.00
57114;BME280;42994;51.606;9.988;2024-01-06T11:45:32;98518.25;;;5.13;100.00
57114;BME280;42994;51.606;9.988;2024-01-06T11:48:01;98504.81;;;5.14;100.00
57114;BME280;42994;51.606;9.988;2024-01-06T11:50:29;98508.47;;;5.05;100.00
57114;BME280;42994;51.606;9.988;2024-01-06T11:52:55;98510.31;;;5.05;100.00
57114;BME280;42994;51.606;9.988;2024-01-06T11:55:23;98518.63;;;5.10;100.00
57114;BME280;42994;51.606;9.988;2024-01-06T11:57:49;98516.13;;;5.08;100.00
57114;BME280;42994;51.606;9.988;2024-01-06T12:00:16;98510.47;;;5.11;100.00
57114;BME280;42994;51.606;9.988;2024-01-06T12:02:43;98513.13;;;5.11;100.00
57114;BME280;42994;51.606;9.988;2024-01-06T12:05:14;98519.44;;;5.10;100.00
57114;BME280;42994;51.606;9.988;2024-01-06T12:07:44;98517.09;;;5.15;100.00
57114;BME280;42994;51.606;9.988;2024-01-06T12:10:20;98504.81;;;5.14;100.00
57114;BME280;42994;51.606;9.988;2024-01-06T12:12:55;98498.00;;;5.12;100.00
57114;BME280;42994;51.606;9.988;2024-01-06T12:15:21;98496.53;;;5.09;100.00
57114;BME280;42994;51.606;9.988;2024-01-06T12:17:48;98488.09;;;5.06;100.00
57114;BME280;42994;51.606;9.988;2024-01-06T12:20:16;98483.59;;;5.06;100.00
57114;BME280;42994;51.606;9.988;2024-01-06T12:22:42;98490.72;;;5.06;100.00
57114;BME280;42994;51.606;9.988;2024-01-06T12:25:10;98499.03;;;5.03;100.00
57114;BME280;42994;51.606;9.988;2024-01-06T12:27:41;98495.84;;;5.07;100.00
57114;BME280;42994;51.606;9.988;2024-01-06T12:30:12;98507.66;;;5.05;100.00
57114;BME280;42994;51.606;9.988;2024-01-06T12:32:41;98497.38;;;5.10;100.00
57114;BME280;42994;51.606;9.988;2024-01-06T12:35:09;98506.84;;;4.96;100.00
57114;BME280;42994;51.606;9.988;2024-01-06T12:37:37;98506.16;;;5.10;100.00
57114;BME280;42994;51.606;9.988;2024-01-06T12:40:04;98511.78;;;5.07;100.00
57114;BME280;42994;51.606;9.988;2024-01-06T12:42:31;98508.97;;;5.17;100.00
57114;BME280;42994;51.606;9.988;2024-01-06T12:44:58;98508.13;;;5.16;100.00
57114;BME280;42994;51.606;9.988;2024-01-06T12:47:24;98503.13;;;5.22;100.00
57114;BME280;42994;51.606;9.988;2024-01-06T12:49:51;98491.19;;;5.17;100.00
57114;BME280;42994;51.606;9.988;2024-01-06T12:52:18;98489.34;;;5.18;100.00
57114;BME280;42994;51.606;9.988;2024-01-06T12:54:45;98497.50;;;5.25;100.00
57114;BME280;42994;51.606;9.988;2024-01-06T12:57:12;98495.16;;;5.22;100.00
57114;BME280;42994;51.606;9.988;2024-01-06T12:59:39;98506.28;;;5.25;100.00